Flight Track Log - Related Links

Times and Time Zones

All times are in EST time to prevent confusion due to time zone crossing. See the N44566 flight status page for this flight to view local times or setup timezone preferences in your user account.

Time Position Orientation Groundspeed Altitude Reporting Facility
EST Latitude Longitude Course Direction KTS MPH feet Rate Location/Type
Mon 06:39:00 PM 40.9564 -72.8306 83° East 88 101 3,500  Level Boston Center
Mon 06:40:01 PM 40.9594 -72.7978 83° East 89 102 3,500  Level Boston Center
Mon 06:41:04 PM 40.9625 -72.7658 83° East 88 101 3,500  Level Boston Center
Mon 06:42:04 PM 40.9647 -72.7333 85° East 88 101 3,500  Level Boston Center
Mon 06:43:05 PM 40.9653 -72.7011 89° East 88 101 3,500  Level Boston Center
Mon 06:44:08 PM 40.9658 -72.6689 89° East 88 101 3,500  Level Boston Center
Mon 06:45:09 PM 40.9803 -72.6428 54° Northeast 89 102 3,500 49 Level Boston Center
Mon 06:46:10 PM 40.9931 -72.6161 58° Northeast 87 100 3,600  Climbing Boston Center
Mon 06:47:20 PM 41.0000 -72.5833 74° East 91 105 3,500 -46 Descending New York TRACON
Mon 06:48:20 PM 41.0167 -72.5500 56° Northeast 83 96 3,500 48 Level New York TRACON
Mon 06:49:26 PM 41.0333 -72.5167 56° Northeast 88 101 3,600 48 Climbing New York TRACON
Mon 06:50:26 PM 41.0500 -72.5000 37° Northeast 82 94 3,600  Level New York TRACON
Mon 06:51:26 PM 41.0500 -72.4667 90° East 82 94 3,600 -50 Level New York TRACON
Mon 06:52:26 PM 41.0667 -72.4500 37° Northeast 91 105 3,500 -50 Descending New York TRACON
Mon 06:53:26 PM 41.0833 -72.4167 56° Northeast 91 105 3,500  Level New York TRACON
Mon 06:54:32 PM 41.1000 -72.3833 56° Northeast 87 100 3,500  Level New York TRACON
Mon 06:55:21 PM 41.1011 -72.3653 85° East 86 99 3,500  Level Boston Center
Mon 06:56:22 PM 41.1103 -72.3372 67° East 85 98 3,500  Level Boston Center
Mon 06:57:25 PM 41.1203 -72.3086 65° Northeast 85 98 3,500  Level Boston Center
Mon 06:58:26 PM 41.1297 -72.2803 66° East 85 98 3,500 50 Level Boston Center
Mon 06:59:26 PM 41.1397 -72.2511 66° East 88 101 3,600 50 Climbing Boston Center
Mon 07:00:25 PM 41.1528 -72.2214 60° Northeast 86 99 3,600  Level Boston Center
Mon 07:00:28 PM 41.1514 -72.2239 234° Southwest 88 101 3,600 -98 Level Boston Center
Mon 07:01:26 PM 41.1650 -72.1944 58° Northeast 88 101 3,500 -98 Descending Boston Center
Mon 07:01:29 PM 41.1675 -72.1928 27° Northeast 86 99 3,500  Level Boston Center
Mon 07:02:30 PM 41.1797 -72.1625 62° Northeast 92 106 3,500 50 Level Boston Center
Mon 07:03:30 PM 41.1908 -72.1342 62° Northeast 88 101 3,600  Climbing Boston Center
Mon 07:03:33 PM 41.1906 -72.1353 252° West 89 102 3,500  Descending Boston Center
Mon 07:04:31 PM 41.2067 -72.1108 49° Northeast 86 99 3,600 98 Climbing Boston Center
Mon 07:04:34 PM 41.2069 -72.1097 72° East 87 100 3,600  Level Boston Center
Mon 07:05:34 PM 41.2189 -72.0819 60° Northeast 88 101 3,600  Level Boston Center
Mon 07:06:36 PM 41.2311 -72.0522 61° Northeast 91 105 3,600 -88 Level Boston Center
Mon 07:06:42 PM 41.2311 -72.0472 90° East 91 105 3,500 -98 Descending Boston Center
Mon 07:07:37 PM 41.2408 -72.0214 63° Northeast 91 105 3,500  Level Boston Center
Mon 07:07:49 PM 41.2422 -72.0142 76° East 93 107 3,500  Level Boston Center
Mon 07:08:37 PM 41.2506 -71.9906 65° Northeast 90 104 3,500  Level Boston Center

Login

Don't have an account? Register now (free) for customized features, flight alerts, and more!